createdAt,value
2022-09-15T00:01:24.320Z,62.65
2022-09-15T00:03:52.594Z,61.98
2022-09-15T00:06:20.395Z,61.97
2022-09-15T00:08:47.956Z,62.85
2022-09-15T00:11:19.709Z,62.42
2022-09-15T00:13:48.499Z,62.13
2022-09-15T00:16:17.469Z,62.54
2022-09-15T00:18:46.242Z,62.46
2022-09-15T00:21:17.205Z,62.54
2022-09-15T00:23:45.195Z,62.76
2022-09-15T00:26:14.671Z,62.70
2022-09-15T00:28:43.125Z,62.23
2022-09-15T00:31:19.916Z,62.73
2022-09-15T00:33:48.271Z,62.86
2022-09-15T00:36:16.400Z,62.83
2022-09-15T00:38:44.404Z,62.74
2022-09-15T00:41:15.530Z,63.12
2022-09-15T00:43:47.690Z,62.95
2022-09-15T00:46:18.763Z,63.64
2022-09-15T00:48:51.291Z,63.12
2022-09-15T00:51:23.977Z,63.66
2022-09-15T00:53:51.802Z,63.33
2022-09-15T00:56:20.562Z,63.49
2022-09-15T00:58:53.347Z,63.17
2022-09-15T01:01:24.343Z,63.76
2022-09-15T01:03:51.974Z,63.97
2022-09-15T01:06:26.431Z,64.11
2022-09-15T01:08:59.230Z,63.51
2022-09-15T01:11:26.837Z,63.81
2022-09-15T01:13:54.349Z,63.89
2022-09-15T01:16:31.352Z,64.16
2022-09-15T01:19:16.229Z,64.37
2022-09-15T01:21:48.971Z,64.67
2022-09-15T01:25:00.849Z,64.28
2022-09-15T01:28:10.253Z,64.40
2022-09-15T01:30:43.063Z,64.73
2022-09-15T01:33:20.031Z,64.24
2022-09-15T01:35:59.557Z,64.35
2022-09-15T01:38:39.791Z,64.30
2022-09-15T01:41:12.796Z,64.40
2022-09-15T01:43:46.200Z,64.49
2022-09-15T01:46:16.295Z,63.88
2022-09-15T01:48:44.391Z,64.77
2022-09-15T01:51:12.159Z,64.29
2022-09-15T01:53:41.094Z,64.21
2022-09-15T01:56:11.373Z,64.96
2022-09-15T01:58:40.906Z,64.79
2022-09-15T02:01:14.219Z,65.36
2022-09-15T02:03:47.172Z,64.51
2022-09-15T02:06:22.063Z,64.96
2022-09-15T02:08:55.311Z,65.10
2022-09-15T02:11:26.540Z,64.41
2022-09-15T02:14:03.414Z,66.29
2022-09-15T02:16:36.172Z,64.81
2022-09-15T02:19:13.064Z,65.84
2022-09-15T02:21:53.846Z,65.66
2022-09-15T02:24:27.770Z,65.32
2022-09-15T02:26:56.101Z,64.85
2022-09-15T02:29:26.332Z,65.24
2022-09-15T02:31:57.049Z,65.59
2022-09-15T02:34:30.287Z,65.79
2022-09-15T02:36:58.449Z,65.72
2022-09-15T02:39:31.816Z,66.21
2022-09-15T02:42:00.987Z,65.46
2022-09-15T02:44:30.541Z,65.57
2022-09-15T02:46:58.419Z,65.36
2022-09-15T02:49:27.246Z,65.64
2022-09-15T02:51:54.755Z,66.43
2022-09-15T02:54:22.272Z,66.47
2022-09-15T02:56:50.363Z,66.19
2022-09-15T02:59:17.813Z,65.51
2022-09-15T03:01:45.427Z,66.08
2022-09-15T03:04:12.886Z,66.53
2022-09-15T03:06:41.699Z,66.40
2022-09-15T03:09:10.054Z,66.10
2022-09-15T03:11:38.295Z,66.16
2022-09-15T03:14:08.190Z,65.70
2022-09-15T03:16:36.609Z,65.38
2022-09-15T03:19:05.645Z,66.17
2022-09-15T03:21:33.180Z,65.64
2022-09-15T03:24:02.426Z,65.83
2022-09-15T03:26:31.013Z,66.62
2022-09-15T03:28:58.547Z,66.19
2022-09-15T03:31:26.125Z,65.71
2022-09-15T03:33:55.114Z,65.76
2022-09-15T03:36:22.735Z,65.96
2022-09-15T03:38:50.240Z,67.18
2022-09-15T03:41:19.851Z,66.31
2022-09-15T03:43:47.341Z,66.99
2022-09-15T03:46:14.869Z,66.32
2022-09-15T03:48:42.449Z,66.56
2022-09-15T03:51:11.073Z,65.69
2022-09-15T03:53:40.263Z,66.07
2022-09-15T03:56:09.695Z,66.45
2022-09-15T03:58:38.855Z,65.94
2022-09-15T04:01:08.395Z,66.39
2022-09-15T04:03:43.207Z,66.34
2022-09-15T04:06:13.515Z,67.22
2022-09-15T04:08:41.197Z,66.58
2022-09-15T04:11:10.719Z,66.09
2022-09-15T04:13:41.790Z,66.55
2022-09-15T04:16:11.303Z,66.18
2022-09-15T04:18:39.268Z,66.94
2022-09-15T04:21:09.263Z,66.67
2022-09-15T04:23:37.166Z,67.16
2022-09-15T04:26:06.966Z,67.89
2022-09-15T04:28:36.892Z,66.64
2022-09-15T04:31:08.576Z,66.48
2022-09-15T04:33:37.221Z,66.74
2022-09-15T04:36:06.772Z,67.39
2022-09-15T04:38:34.430Z,67.14
2022-09-15T04:41:02.902Z,66.73
2022-09-15T04:43:31.034Z,67.04
2022-09-15T04:45:58.881Z,68.81
2022-09-15T04:48:28.322Z,67.27
2022-09-15T04:50:55.862Z,68.66
2022-09-15T04:53:23.282Z,67.80
2022-09-15T04:55:50.738Z,67.52
2022-09-15T04:58:18.159Z,67.59
2022-09-15T05:00:45.821Z,67.94
2022-09-15T05:03:15.171Z,67.74
2022-09-15T05:05:44.059Z,67.96
2022-09-15T05:08:11.535Z,68.39
2022-09-15T05:10:39.121Z,68.77
2022-09-15T05:13:06.789Z,68.08
2022-09-15T05:15:34.285Z,68.57
2022-09-15T05:18:02.138Z,68.01
2022-09-15T05:20:29.799Z,68.12
2022-09-15T05:22:58.799Z,70.29
2022-09-15T05:25:26.965Z,68.92
2022-09-15T05:27:55.124Z,68.68
2022-09-15T05:30:37.588Z,69.04
2022-09-15T05:33:07.343Z,68.73
2022-09-15T05:35:35.620Z,68.46
2022-09-15T05:38:05.035Z,67.90
2022-09-15T05:40:34.369Z,68.85
2022-09-15T05:43:03.114Z,68.23
2022-09-15T05:45:31.364Z,70.14
2022-09-15T05:47:59.367Z,69.29
2022-09-15T05:50:27.356Z,69.27
2022-09-15T05:52:54.986Z,68.20
2022-09-15T05:55:25.758Z,68.33
2022-09-15T05:57:53.720Z,68.64
2022-09-15T06:00:21.388Z,68.44
2022-09-15T06:02:49.167Z,68.81
2022-09-15T06:05:42.342Z,68.75
2022-09-15T06:08:57.486Z,68.38
2022-09-15T06:11:32.007Z,67.90
2022-09-15T06:14:09.052Z,69.42
2022-09-15T06:16:40.773Z,68.28
2022-09-15T06:19:09.219Z,67.80
2022-09-15T06:21:37.587Z,67.41
2022-09-15T06:24:07.527Z,67.73
2022-09-15T06:26:36.905Z,67.40
2022-09-15T06:29:07.051Z,67.60
2022-09-15T06:31:35.906Z,66.77
2022-09-15T06:34:05.126Z,66.23
2022-09-15T06:36:34.214Z,65.67
2022-09-15T06:39:03.307Z,65.48
2022-09-15T06:41:52.852Z,64.81
2022-09-15T06:44:25.163Z,64.11
2022-09-15T06:46:53.542Z,63.41
2022-09-15T06:49:22.050Z,62.54
2022-09-15T06:51:49.896Z,61.31
2022-09-15T06:54:17.838Z,61.07
2022-09-15T06:56:45.773Z,60.28
2022-09-15T06:59:14.100Z,59.63
2022-09-15T07:01:43.635Z,60.11
2022-09-15T07:04:11.381Z,60.96
2022-09-15T07:06:40.643Z,59.83
2022-09-15T07:09:08.564Z,59.11
2022-09-15T07:11:36.077Z,59.57
2022-09-15T07:14:03.617Z,58.61
2022-09-15T07:16:31.791Z,57.71
2022-09-15T07:19:03.443Z,56.78
2022-09-15T07:21:30.983Z,56.81
2022-09-15T07:24:01.468Z,56.11
2022-09-15T07:26:31.590Z,55.95
2022-09-15T07:29:01.231Z,56.39
2022-09-15T07:31:31.181Z,56.87
2022-09-15T07:34:02.186Z,56.56
2022-09-15T07:36:30.279Z,54.66
2022-09-15T07:38:58.173Z,55.32
2022-09-15T07:41:27.598Z,55.43
2022-09-15T07:43:57.491Z,56.02
2022-09-15T07:46:26.703Z,54.97
2022-09-15T07:48:56.368Z,54.12
2022-09-15T07:51:26.245Z,54.96
2022-09-15T07:53:54.514Z,54.91
2022-09-15T07:56:24.580Z,54.10
2022-09-15T07:58:52.776Z,55.48
2022-09-15T08:01:22.365Z,55.91
2022-09-15T08:03:52.191Z,56.24
2022-09-15T08:06:21.588Z,56.54
2022-09-15T08:08:56.305Z,56.94
2022-09-15T08:11:26.745Z,56.65
2022-09-15T08:13:54.225Z,57.31
2022-09-15T08:16:23.774Z,57.17
2022-09-15T08:18:54.420Z,57.42
2022-09-15T08:21:22.490Z,57.03
2022-09-15T08:23:56.363Z,57.53
2022-09-15T08:26:24.580Z,56.65
2022-09-15T08:28:52.833Z,56.97
2022-09-15T08:31:20.809Z,56.80
2022-09-15T08:33:50.098Z,56.83
2022-09-15T08:36:18.477Z,57.05
2022-09-15T08:38:47.737Z,56.91
2022-09-15T08:41:21.607Z,56.91
2022-09-15T08:43:55.771Z,57.28
2022-09-15T08:46:28.735Z,56.86
2022-09-15T08:49:04.429Z,57.04
2022-09-15T08:51:36.963Z,57.40
2022-09-15T08:54:12.269Z,56.77
2022-09-15T08:56:43.968Z,57.42
2022-09-15T08:59:15.779Z,57.66
2022-09-15T09:01:55.645Z,57.15
2022-09-15T09:04:41.257Z,57.17
2022-09-15T09:07:21.472Z,57.17
2022-09-15T09:09:53.667Z,57.23
2022-09-15T09:12:42.500Z,57.58
2022-09-15T09:15:22.511Z,57.54
2022-09-15T09:18:07.391Z,56.98
2022-09-15T09:20:49.884Z,57.15
2022-09-15T09:23:24.352Z,56.50
2022-09-15T09:25:52.695Z,56.83
2022-09-15T09:28:30.907Z,56.96
2022-09-15T09:31:08.516Z,56.72
2022-09-15T09:33:53.463Z,56.18
2022-09-15T09:36:21.731Z,56.45
2022-09-15T09:38:50.470Z,56.65
2022-09-15T09:41:22.348Z,57.04
2022-09-15T09:43:54.148Z,56.71
2022-09-15T09:46:22.239Z,57.28
2022-09-15T09:48:56.312Z,56.73
2022-09-15T09:51:35.357Z,56.63
2022-09-15T09:54:12.241Z,56.11
2022-09-15T09:56:40.788Z,54.78
2022-09-15T09:59:35.463Z,56.10
2022-09-15T10:02:16.306Z,55.51
2022-09-15T10:04:46.499Z,55.77
2022-09-15T10:07:17.173Z,55.29
2022-09-15T10:09:55.470Z,54.93
2022-09-15T10:12:33.960Z,54.73
2022-09-15T10:15:06.825Z,53.82
2022-09-15T10:17:43.924Z,53.48
2022-09-15T10:20:25.500Z,54.19
2022-09-15T10:22:53.454Z,53.34
2022-09-15T10:25:44.565Z,53.12
2022-09-15T10:28:24.396Z,52.27
2022-09-15T10:31:07.126Z,51.63
2022-09-15T10:33:36.420Z,52.73
2022-09-15T10:36:13.222Z,52.36
2022-09-15T10:38:44.775Z,52.92
2022-09-15T10:41:24.271Z,52.37
2022-09-15T10:44:04.962Z,51.31
2022-09-15T10:46:44.295Z,51.78
2022-09-15T10:49:25.352Z,52.05
2022-09-15T10:52:07.539Z,51.98
2022-09-15T10:54:58.919Z,50.04
2022-09-15T10:57:38.338Z,49.18
2022-09-15T11:00:08.294Z,49.78
2022-09-15T11:03:08.325Z,49.66
2022-09-15T11:05:52.009Z,47.68
2022-09-15T11:08:55.283Z,46.09
2022-09-15T11:11:31.654Z,45.29
2022-09-15T11:14:16.588Z,46.92
2022-09-15T11:19:38.414Z,45.75
2022-09-15T11:22:12.911Z,45.04
2022-09-15T11:24:46.788Z,46.35
2022-09-15T11:27:20.876Z,47.55
2022-09-15T11:30:01.193Z,46.54
2022-09-15T11:32:32.030Z,48.01
2022-09-15T11:35:08.736Z,47.26
2022-09-15T11:37:42.249Z,47.79
2022-09-15T11:40:19.798Z,46.79
2022-09-15T11:42:52.988Z,47.68
2022-09-15T11:45:27.046Z,48.53
2022-09-15T11:48:00.113Z,47.02
2022-09-15T11:50:35.253Z,46.00
2022-09-15T11:53:09.973Z,46.51
2022-09-15T11:55:43.045Z,45.45
2022-09-15T11:58:22.045Z,45.00
2022-09-15T12:00:55.238Z,44.61
2022-09-15T12:03:28.116Z,46.50
2022-09-15T12:05:59.937Z,45.38
2022-09-15T12:08:33.003Z,46.18
2022-09-15T12:11:04.424Z,46.48
2022-09-15T12:13:32.610Z,47.26
2022-09-15T12:16:01.977Z,48.63
2022-09-15T12:18:39.338Z,47.19
2022-09-15T12:21:16.179Z,47.54
2022-09-15T12:23:51.063Z,47.70
2022-09-15T12:26:20.710Z,47.97
2022-09-15T12:29:02.177Z,48.94
2022-09-15T12:31:40.442Z,48.28
2022-09-15T12:34:36.419Z,48.62
2022-09-15T12:37:15.234Z,47.78
2022-09-15T12:39:44.023Z,48.51
2022-09-15T12:42:21.350Z,48.07
2022-09-15T12:44:55.111Z,48.50
2022-09-15T12:47:28.411Z,48.64
2022-09-15T12:50:00.581Z,48.50
2022-09-15T12:52:30.301Z,49.33
2022-09-15T12:55:01.929Z,48.77
2022-09-15T12:57:33.392Z,48.99
2022-09-15T13:00:37.985Z,49.14
2022-09-15T13:03:26.350Z,49.16
2022-09-15T13:06:19.715Z,48.28
2022-09-15T13:08:51.267Z,47.72
2022-09-15T13:11:24.335Z,48.58
2022-09-15T13:13:55.323Z,49.17
2022-09-15T13:16:29.992Z,48.87
2022-09-15T13:19:08.621Z,47.69
2022-09-15T13:21:38.996Z,48.44
2022-09-15T13:24:25.409Z,49.25
2022-09-15T13:26:57.451Z,49.08
2022-09-15T13:29:26.403Z,48.81
2022-09-15T13:32:01.691Z,49.24
2022-09-15T13:35:08.989Z,49.27
2022-09-15T13:38:16.782Z,48.00
2022-09-15T13:41:12.977Z,46.90
2022-09-15T13:44:05.251Z,46.81
2022-09-15T13:46:44.483Z,45.61
2022-09-15T13:49:35.742Z,47.96
2022-09-15T13:52:14.000Z,46.51
2022-09-15T13:55:10.183Z,46.82
2022-09-15T14:00:34.856Z,48.20
2022-09-15T14:03:06.911Z,47.96
2022-09-15T14:05:36.953Z,47.79
2022-09-15T14:08:06.815Z,48.87
2022-09-15T14:10:46.770Z,48.92
2022-09-15T14:13:26.669Z,48.88
2022-09-15T14:15:59.344Z,48.19
2022-09-15T14:18:27.740Z,49.09
2022-09-15T14:21:01.104Z,49.16
2022-09-15T14:23:29.706Z,49.13
2022-09-15T14:26:00.125Z,49.29
2022-09-15T14:28:33.035Z,49.17
2022-09-15T14:31:01.963Z,49.01
2022-09-15T14:33:37.935Z,49.58
2022-09-15T14:36:14.118Z,48.75
2022-09-15T14:38:42.186Z,49.12
2022-09-15T14:41:19.674Z,49.03
2022-09-15T14:43:49.061Z,48.56
2022-09-15T14:46:19.047Z,49.24
2022-09-15T14:48:46.791Z,48.50
2022-09-15T14:51:20.617Z,48.59
2022-09-15T14:53:52.248Z,48.85
2022-09-15T14:56:23.751Z,48.07
2022-09-15T14:58:56.063Z,49.08
2022-09-15T15:01:29.925Z,49.13
2022-09-15T15:04:09.938Z,49.35
2022-09-15T15:06:41.465Z,49.76
2022-09-15T15:09:16.296Z,48.66
2022-09-15T15:11:43.990Z,49.69
2022-09-15T15:14:15.895Z,49.41
2022-09-15T15:16:52.564Z,49.72
2022-09-15T15:19:33.129Z,49.69
2022-09-15T15:22:08.352Z,49.65
2022-09-15T15:24:41.011Z,48.44
2022-09-15T15:27:41.512Z,49.00
2022-09-15T15:30:44.413Z,48.87
2022-09-15T15:33:21.329Z,48.49
2022-09-15T15:36:04.473Z,47.56
2022-09-15T15:38:51.631Z,48.82
2022-09-15T15:41:26.449Z,48.62
2022-09-15T15:44:03.408Z,48.44
2022-09-15T15:47:20.213Z,48.63
2022-09-15T15:50:09.374Z,47.46
2022-09-15T15:52:38.768Z,48.59
2022-09-15T15:55:09.503Z,48.49
2022-09-15T15:57:50.254Z,49.45
2022-09-15T16:00:23.541Z,50.68
2022-09-15T16:02:56.029Z,51.54
2022-09-15T16:05:31.169Z,51.87
2022-09-15T16:08:13.174Z,52.12
2022-09-15T16:10:45.833Z,52.36
2022-09-15T16:13:21.017Z,52.68
2022-09-15T16:15:51.155Z,53.12
2022-09-15T16:18:23.933Z,52.82
2022-09-15T16:20:56.377Z,53.67
2022-09-15T16:23:25.849Z,53.21
2022-09-15T16:26:11.774Z,53.74
2022-09-15T16:28:50.509Z,54.08
2022-09-15T16:31:54.930Z,54.35
2022-09-15T16:34:25.628Z,54.06
2022-09-15T16:37:01.401Z,54.04
2022-09-15T16:39:31.625Z,54.11
2022-09-15T16:42:21.062Z,53.67
2022-09-15T16:44:52.612Z,54.27
2022-09-15T16:47:21.820Z,54.16
2022-09-15T16:49:53.210Z,54.10
2022-09-15T16:52:31.607Z,54.29
2022-09-15T16:55:07.448Z,54.64
2022-09-15T16:57:43.197Z,54.82
2022-09-15T17:00:41.669Z,54.85
2022-09-15T17:03:30.936Z,55.47
2022-09-15T17:08:52.759Z,55.30
2022-09-15T17:11:23.862Z,55.62
2022-09-15T17:13:52.984Z,55.40
2022-09-15T17:16:22.189Z,55.10
2022-09-15T17:18:51.098Z,55.29
2022-09-15T17:21:20.705Z,55.17
2022-09-15T17:23:49.697Z,55.30
2022-09-15T17:26:21.807Z,55.19
2022-09-15T17:28:50.758Z,55.35
2022-09-15T17:31:38.940Z,55.62
2022-09-15T17:34:16.388Z,55.35
2022-09-15T17:36:45.698Z,55.86
2022-09-15T17:39:13.665Z,55.87
2022-09-15T17:41:41.638Z,55.65
2022-09-15T17:44:12.477Z,56.07
2022-09-15T17:46:40.641Z,55.81
2022-09-15T17:49:09.029Z,55.87
2022-09-15T17:51:37.115Z,55.72
2022-09-15T17:54:07.642Z,55.61
2022-09-15T17:56:35.698Z,56.20
2022-09-15T17:59:04.742Z,55.73
2022-09-15T18:01:34.886Z,56.23
2022-09-15T18:04:07.776Z,56.28
2022-09-15T18:06:45.736Z,56.61
2022-09-15T18:09:23.226Z,56.55
2022-09-15T18:14:23.031Z,57.13
2022-09-15T18:16:52.226Z,56.94
2022-09-15T18:19:21.758Z,57.29
2022-09-15T18:21:56.179Z,57.03
2022-09-15T18:24:45.100Z,56.56
2022-09-15T18:27:49.624Z,58.00
2022-09-15T18:30:19.877Z,57.83
2022-09-15T18:32:52.924Z,57.66
2022-09-15T18:35:26.447Z,57.92
2022-09-15T18:37:57.976Z,58.00
2022-09-15T18:40:29.135Z,57.50
2022-09-15T18:42:57.615Z,57.92
2022-09-15T18:45:26.542Z,57.52
2022-09-15T18:47:55.084Z,58.01
2022-09-15T18:50:25.408Z,57.66
2022-09-15T18:52:53.584Z,58.14
2022-09-15T18:55:23.618Z,58.15
2022-09-15T18:57:53.102Z,58.25
2022-09-15T19:00:23.250Z,59.03
2022-09-15T19:02:59.997Z,59.06
2022-09-15T19:05:29.100Z,58.70
2022-09-15T19:07:58.383Z,59.26
2022-09-15T19:10:28.020Z,58.60
2022-09-15T19:12:57.399Z,58.62
2022-09-15T19:15:25.268Z,59.50
2022-09-15T19:17:53.443Z,58.75
2022-09-15T19:20:21.724Z,59.13
2022-09-15T19:22:51.667Z,58.52
2022-09-15T19:25:20.523Z,59.01
2022-09-15T19:27:48.724Z,58.79
2022-09-15T19:30:18.123Z,59.95
2022-09-15T19:32:46.086Z,59.97
2022-09-15T19:35:14.166Z,59.41
2022-09-15T19:37:43.338Z,59.06
2022-09-15T19:40:13.870Z,59.72
2022-09-15T19:42:43.580Z,59.48
2022-09-15T19:45:13.731Z,59.52
2022-09-15T19:47:43.412Z,59.42
2022-09-15T19:50:13.021Z,59.93
2022-09-15T19:52:41.106Z,59.58
2022-09-15T19:55:10.392Z,60.16
2022-09-15T19:57:40.827Z,59.84
2022-09-15T20:00:12.475Z,59.87
2022-09-15T20:02:40.706Z,60.57
2022-09-15T20:05:10.668Z,60.39
2022-09-15T20:07:38.745Z,59.32
2022-09-15T20:10:07.540Z,60.43
2022-09-15T20:12:35.832Z,59.97
2022-09-15T20:15:03.971Z,60.61
2022-09-15T20:17:32.126Z,60.46
2022-09-15T20:20:00.240Z,59.87
2022-09-15T20:22:29.746Z,60.38
2022-09-15T20:24:58.005Z,59.55
2022-09-15T20:27:26.271Z,61.14
2022-09-15T20:29:54.238Z,60.13
2022-09-15T20:32:28.092Z,61.13
2022-09-15T20:34:57.137Z,60.74
2022-09-15T20:37:25.204Z,60.67
2022-09-15T20:39:54.640Z,61.30
2022-09-15T20:42:22.676Z,60.63
2022-09-15T20:44:50.663Z,60.69
2022-09-15T20:47:18.615Z,60.65
2022-09-15T20:49:46.684Z,60.19
2022-09-15T20:52:14.762Z,60.20
2022-09-15T20:54:43.134Z,60.70
2022-09-15T20:57:12.356Z,60.59
2022-09-15T20:59:40.317Z,60.14
2022-09-15T21:02:08.925Z,60.22
2022-09-15T21:04:36.770Z,59.83
2022-09-15T21:07:04.843Z,60.58
2022-09-15T21:09:32.696Z,60.74
2022-09-15T21:12:01.097Z,61.06
2022-09-15T21:14:30.668Z,59.82
2022-09-15T21:16:58.657Z,60.27
2022-09-15T21:19:27.030Z,60.60
2022-09-15T21:21:55.909Z,60.71
2022-09-15T21:24:24.181Z,59.89
2022-09-15T21:27:10.583Z,60.12
2022-09-15T21:29:39.881Z,60.04
2022-09-15T21:32:08.044Z,60.36
2022-09-15T21:34:35.940Z,60.53
2022-09-15T21:37:03.821Z,60.72
2022-09-15T21:39:31.759Z,60.22
2022-09-15T21:41:59.726Z,60.39
2022-09-15T21:44:27.712Z,61.36
2022-09-15T21:46:56.995Z,60.82
2022-09-15T21:49:24.977Z,60.30
2022-09-15T21:51:52.956Z,60.74
2022-09-15T21:54:21.128Z,60.56
2022-09-15T21:56:49.095Z,61.87
2022-09-15T21:59:18.483Z,61.26
2022-09-15T22:01:46.619Z,60.85
2022-09-15T22:04:16.058Z,60.79
2022-09-15T22:06:43.699Z,60.92
2022-09-15T22:09:15.118Z,60.50
2022-09-15T22:11:42.829Z,60.73
2022-09-15T22:14:11.895Z,60.88
2022-09-15T22:16:40.895Z,60.98
2022-09-15T22:19:10.131Z,62.08
2022-09-15T22:21:41.683Z,61.61
2022-09-15T22:24:12.615Z,61.37
2022-09-15T22:26:41.430Z,62.13
2022-09-15T22:29:08.892Z,61.88
2022-09-15T22:31:36.671Z,61.72
2022-09-15T22:34:04.765Z,61.60
2022-09-15T22:36:32.661Z,61.75
2022-09-15T22:39:05.079Z,62.23
2022-09-15T22:41:34.768Z,61.60
2022-09-15T22:44:03.399Z,62.15
2022-09-15T22:46:31.243Z,61.38
2022-09-15T22:48:59.080Z,61.96
2022-09-15T22:51:26.691Z,62.00
2022-09-15T22:53:56.642Z,61.51
2022-09-15T22:56:26.721Z,61.55
2022-09-15T22:58:55.233Z,61.76
2022-09-15T23:01:25.048Z,62.43
2022-09-15T23:03:53.734Z,62.30
2022-09-15T23:06:21.846Z,61.77
2022-09-15T23:08:51.531Z,62.18
2022-09-15T23:11:19.387Z,62.70
2022-09-15T23:13:48.938Z,63.17
2022-09-15T23:16:17.741Z,62.16
2022-09-15T23:18:48.278Z,62.23
2022-09-15T23:21:15.997Z,62.83
2022-09-15T23:23:46.600Z,62.33
2022-09-15T23:26:14.639Z,62.71
2022-09-15T23:28:42.392Z,62.20
2022-09-15T23:31:13.398Z,62.89
2022-09-15T23:33:42.785Z,62.61
2022-09-15T23:36:12.379Z,62.67
2022-09-15T23:38:44.155Z,63.14
2022-09-15T23:41:13.533Z,62.84
2022-09-15T23:43:40.996Z,62.99
2022-09-15T23:46:09.224Z,62.11
2022-09-15T23:48:38.443Z,62.44
2022-09-15T23:51:06.486Z,62.48
2022-09-15T23:53:34.750Z,62.89
2022-09-15T23:56:02.676Z,62.38
2022-09-15T23:58:30.157Z,62.40
